CYTZ/YTZ METAR and TAF weather

Enter ICAO airport designator
Station Type Date Time Source
CYTZ METAR 2019/04/23 22:00 UTC NOAA

CYTZ 232200Z AUTO 29018G30KT 9SM BKN022 BKN085 12/08 A2970 RMK PRESRR SLP062


Station Type Date Time Source
CYTZ Decoded METAR 2019/04/23 22:00 UTC NOAA

Toronto Island Airport Automated Reporting Station, Canada (CYTZ) 43-38N 079-24W
Apr 23, 2019 - 06:00 PM EDT / 2019.04.23 2200 UTC
Wind: from the WNW (290 degrees) at 21 MPH (18 KT) gusting to 35 MPH (30 KT):0
Visibility: 9 mile(s):0
Sky conditions: mostly cloudy
Temperature: 53 F (12 C)
Dew Point: 46 F (8 C)
Relative Humidity: 76%
Pressure (altimeter): 29.7 in. Hg (1005 hPa)
Pressure tendency: rising rapidly
ob: CYTZ 232200Z AUTO 29018G30KT 9SM BKN022 BKN085 12/08 A2970 RMK PRESRR SLP062
cycle: 22

Station Type Date Time Source
CYTZ TAF 2019/04/23 20:51 UTC NOAA

TAF CYTZ 231948Z 2320/2420 21010KT P6SM OVC040
TEMPO 2320/2321 5SM -RA BR OVC025
FM232100 21012G22KT P6SM OVC025
TEMPO 2321/2403 OVC020
BECMG 2321/2323 27020G35KT
FM240300 30015G25KT P6SM OVC025
BECMG 2404/2406 30015KT
FM241500 30015KT P6SM SCT030
RMK FCST BASED ON AUTO OBS. NXT FCST BY 240200Z

Example: see airport list